sensor_id;sensor_type;location;lat;lon;timestamp;temperature;humidity
65207;SHT31;58477;48.072;11.970;2023-01-04T00:01:40;3.34;99.59
65207;SHT31;58477;48.072;11.970;2023-01-04T00:04:05;3.18;98.77
65207;SHT31;58477;48.072;11.970;2023-01-04T00:06:31;2.94;98.54
65207;SHT31;58477;48.072;11.970;2023-01-04T00:08:56;3.00;98.90
65207;SHT31;58477;48.072;11.970;2023-01-04T00:11:22;2.72;99.13
65207;SHT31;58477;48.072;11.970;2023-01-04T00:13:50;2.93;99.22
65207;SHT31;58477;48.072;11.970;2023-01-04T00:16:18;3.03;99.03
65207;SHT31;58477;48.072;11.970;2023-01-04T00:18:44;3.04;98.42
65207;SHT31;58477;48.072;11.970;2023-01-04T00:21:20;2.72;98.18
65207;SHT31;58477;48.072;11.970;2023-01-04T00:23:47;2.42;99.04
65207;SHT31;58477;48.072;11.970;2023-01-04T00:26:19;2.66;99.30
65207;SHT31;58477;48.072;11.970;2023-01-04T00:29:03;2.86;99.34
65207;SHT31;58477;48.072;11.970;2023-01-04T00:31:29;2.49;98.93
65207;SHT31;58477;48.072;11.970;2023-01-04T00:33:56;2.66;99.17
65207;SHT31;58477;48.072;11.970;2023-01-04T00:36:22;2.45;98.87
65207;SHT31;58477;48.072;11.970;2023-01-04T00:38:48;2.64;99.40
65207;SHT31;58477;48.072;11.970;2023-01-04T00:41:48;2.77;99.19
65207;SHT31;58477;48.072;11.970;2023-01-04T00:44:15;2.83;98.67
65207;SHT31;58477;48.072;11.970;2023-01-04T00:46:41;2.90;98.44
65207;SHT31;58477;48.072;11.970;2023-01-04T00:49:08;2.66;97.95
65207;SHT31;58477;48.072;11.970;2023-01-04T00:51:35;2.66;98.62
65207;SHT31;58477;48.072;11.970;2023-01-04T00:54:03;2.76;98.57
65207;SHT31;58477;48.072;11.970;2023-01-04T00:56:29;2.64;98.02
65207;SHT31;58477;48.072;11.970;2023-01-04T00:58:56;2.76;98.11
65207;SHT31;58477;48.072;11.970;2023-01-04T01:01:22;2.80;97.85
65207;SHT31;58477;48.072;11.970;2023-01-04T01:03:51;2.90;97.64
65207;SHT31;58477;48.072;11.970;2023-01-04T01:06:17;2.93;97.17
65207;SHT31;58477;48.072;11.970;2023-01-04T01:08:43;2.89;96.72
65207;SHT31;58477;48.072;11.970;2023-01-04T01:11:09;2.52;97.14
65207;SHT31;58477;48.072;11.970;2023-01-04T01:13:36;2.56;97.92
65207;SHT31;58477;48.072;11.970;2023-01-04T01:16:06;2.35;98.26
65207;SHT31;58477;48.072;11.970;2023-01-04T01:18:33;2.29;98.34
65207;SHT31;58477;48.072;11.970;2023-01-04T01:20:59;2.22;98.90
65207;SHT31;58477;48.072;11.970;2023-01-04T01:23:24;2.12;99.10
65207;SHT31;58477;48.072;11.970;2023-01-04T01:25:50;2.21;99.50
65207;SHT31;58477;48.072;11.970;2023-01-04T01:28:15;2.48;99.67
65207;SHT31;58477;48.072;11.970;2023-01-04T01:30:41;2.59;99.44
65207;SHT31;58477;48.072;11.970;2023-01-04T01:33:08;2.72;99.32
65207;SHT31;58477;48.072;11.970;2023-01-04T01:35:34;2.69;98.95
65207;SHT31;58477;48.072;11.970;2023-01-04T01:38:00;2.71;98.86
65207;SHT31;58477;48.072;11.970;2023-01-04T01:40:25;2.84;98.78
65207;SHT31;58477;48.072;11.970;2023-01-04T01:42:51;2.94;98.31
65207;SHT31;58477;48.072;11.970;2023-01-04T01:45:31;3.03;97.74
65207;SHT31;58477;48.072;11.970;2023-01-04T01:48:06;2.77;97.57
65207;SHT31;58477;48.072;11.970;2023-01-04T01:50:39;2.59;98.33
65207;SHT31;58477;48.072;11.970;2023-01-04T01:53:08;2.64;98.84
65207;SHT31;58477;48.072;11.970;2023-01-04T01:55:35;2.59;99.02
65207;SHT31;58477;48.072;11.970;2023-01-04T01:58:02;2.71;99.19
65207;SHT31;58477;48.072;11.970;2023-01-04T02:00:29;2.79;98.90
65207;SHT31;58477;48.072;11.970;2023-01-04T02:03:11;2.56;98.82
65207;SHT31;58477;48.072;11.970;2023-01-04T02:05:37;2.56;99.02
65207;SHT31;58477;48.072;11.970;2023-01-04T02:08:03;2.75;99.08
65207;SHT31;58477;48.072;11.970;2023-01-04T02:10:30;2.89;98.94
65207;SHT31;58477;48.072;11.970;2023-01-04T02:12:56;2.93;98.42
65207;SHT31;58477;48.072;11.970;2023-01-04T02:15:25;2.96;98.19
65207;SHT31;58477;48.072;11.970;2023-01-04T02:18:07;2.96;97.96
65207;SHT31;58477;48.072;11.970;2023-01-04T02:20:49;2.96;97.65
65207;SHT31;58477;48.072;11.970;2023-01-04T02:26:25;2.90;97.36
65207;SHT31;58477;48.072;11.970;2023-01-04T02:31:56;2.82;97.49
65207;SHT31;58477;48.072;11.970;2023-01-04T02:34:39;2.73;97.23
65207;SHT31;58477;48.072;11.970;2023-01-04T02:37:17;2.75;97.47
65207;SHT31;58477;48.072;11.970;2023-01-04T02:40:02;2.73;97.52
65207;SHT31;58477;48.072;11.970;2023-01-04T02:45:16;2.64;97.67
65207;SHT31;58477;48.072;11.970;2023-01-04T02:47:42;2.62;97.65
65207;SHT31;58477;48.072;11.970;2023-01-04T02:53:12;2.43;97.57
65207;SHT31;58477;48.072;11.970;2023-01-04T02:58:26;2.35;97.70
65207;SHT31;58477;48.072;11.970;2023-01-04T03:01:26;2.31;97.64
65207;SHT31;58477;48.072;11.970;2023-01-04T03:04:16;2.28;97.51
65207;SHT31;58477;48.072;11.970;2023-01-04T03:07:15;2.28;97.78
65207;SHT31;58477;48.072;11.970;2023-01-04T03:09:45;2.21;97.61
65207;SHT31;58477;48.072;11.970;2023-01-04T03:12:20;2.21;97.70
65207;SHT31;58477;48.072;11.970;2023-01-04T03:15:22;2.15;97.68
65207;SHT31;58477;48.072;11.970;2023-01-04T03:20:17;2.11;97.65
65207;SHT31;58477;48.072;11.970;2023-01-04T03:25:50;2.02;97.47
65207;SHT31;58477;48.072;11.970;2023-01-04T03:28:37;1.97;97.83
65207;SHT31;58477;48.072;11.970;2023-01-04T03:31:26;1.95;97.92
65207;SHT31;58477;48.072;11.970;2023-01-04T03:34:12;2.01;98.19
65207;SHT31;58477;48.072;11.970;2023-01-04T03:37:07;2.02;98.27
65207;SHT31;58477;48.072;11.970;2023-01-04T03:43:18;1.89;97.74
65207;SHT31;58477;48.072;11.970;2023-01-04T03:49:21;1.48;96.94
65207;SHT31;58477;48.072;11.970;2023-01-04T03:51:50;1.50;97.36
65207;SHT31;58477;48.072;11.970;2023-01-04T03:54:24;1.50;97.94
65207;SHT31;58477;48.072;11.970;2023-01-04T03:56:51;1.33;97.43
65207;SHT31;58477;48.072;11.970;2023-01-04T03:59:17;1.30;97.48
65207;SHT31;58477;48.072;11.970;2023-01-04T04:01:42;1.24;97.30
65207;SHT31;58477;48.072;11.970;2023-01-04T04:04:09;1.00;97.33
65207;SHT31;58477;48.072;11.970;2023-01-04T04:06:53;0.86;96.97
65207;SHT31;58477;48.072;11.970;2023-01-04T04:09:37;0.90;97.71
65207;SHT31;58477;48.072;11.970;2023-01-04T04:12:02;1.04;98.27
65207;SHT31;58477;48.072;11.970;2023-01-04T04:14:28;1.07;97.96
65207;SHT31;58477;48.072;11.970;2023-01-04T04:16:53;1.29;98.99
65207;SHT31;58477;48.072;11.970;2023-01-04T04:19:19;1.44;99.36
65207;SHT31;58477;48.072;11.970;2023-01-04T04:21:44;1.33;99.14
65207;SHT31;58477;48.072;11.970;2023-01-04T04:24:16;1.13;98.21
65207;SHT31;58477;48.072;11.970;2023-01-04T04:26:42;1.51;99.30
65207;SHT31;58477;48.072;11.970;2023-01-04T04:29:08;1.78;99.68
65207;SHT31;58477;48.072;11.970;2023-01-04T04:31:33;1.97;99.78
65207;SHT31;58477;48.072;11.970;2023-01-04T04:33:58;2.17;99.85
65207;SHT31;58477;48.072;11.970;2023-01-04T04:36:24;2.21;99.85
65207;SHT31;58477;48.072;11.970;2023-01-04T04:38:49;2.26;99.65
65207;SHT31;58477;48.072;11.970;2023-01-04T04:41:15;2.32;99.39
65207;SHT31;58477;48.072;11.970;2023-01-04T04:43:59;2.32;99.14
65207;SHT31;58477;48.072;11.970;2023-01-04T04:46:24;2.31;99.08
65207;SHT31;58477;48.072;11.970;2023-01-04T04:48:50;2.26;98.87
65207;SHT31;58477;48.072;11.970;2023-01-04T04:51:16;2.21;98.75
65207;SHT31;58477;48.072;11.970;2023-01-04T04:53:41;2.02;98.15
65207;SHT31;58477;48.072;11.970;2023-01-04T04:56:07;1.87;97.98
65207;SHT31;58477;48.072;11.970;2023-01-04T04:58:33;1.53;97.32
65207;SHT31;58477;48.072;11.970;2023-01-04T05:00:58;1.48;97.85
65207;SHT31;58477;48.072;11.970;2023-01-04T05:03:24;1.37;97.87
65207;SHT31;58477;48.072;11.970;2023-01-04T05:05:49;1.02;96.82
65207;SHT31;58477;48.072;11.970;2023-01-04T05:08:14;0.76;96.85
65207;SHT31;58477;48.072;11.970;2023-01-04T05:10:40;0.82;97.67
65207;SHT31;58477;48.072;11.970;2023-01-04T05:13:05;1.06;98.77
65207;SHT31;58477;48.072;11.970;2023-01-04T05:15:39;1.30;99.33
65207;SHT31;58477;48.072;11.970;2023-01-04T05:18:06;1.48;99.55
65207;SHT31;58477;48.072;11.970;2023-01-04T05:20:32;1.55;99.67
65207;SHT31;58477;48.072;11.970;2023-01-04T05:22:58;1.37;99.15
65207;SHT31;58477;48.072;11.970;2023-01-04T05:25:23;1.43;99.09
65207;SHT31;58477;48.072;11.970;2023-01-04T05:27:49;1.37;99.10
65207;SHT31;58477;48.072;11.970;2023-01-04T05:30:15;1.26;98.63
65207;SHT31;58477;48.072;11.970;2023-01-04T05:33:00;1.24;98.60
65207;SHT31;58477;48.072;11.970;2023-01-04T05:35:25;1.16;98.44
65207;SHT31;58477;48.072;11.970;2023-01-04T05:37:50;1.10;98.26
65207;SHT31;58477;48.072;11.970;2023-01-04T05:40:16;1.04;98.18
65207;SHT31;58477;48.072;11.970;2023-01-04T05:42:42;0.97;98.23
65207;SHT31;58477;48.072;11.970;2023-01-04T05:45:07;0.93;98.17
65207;SHT31;58477;48.072;11.970;2023-01-04T05:47:34;0.88;98.15
65207;SHT31;58477;48.072;11.970;2023-01-04T05:49:59;0.78;98.04
65207;SHT31;58477;48.072;11.970;2023-01-04T05:52:25;0.79;98.30
65207;SHT31;58477;48.072;11.970;2023-01-04T05:54:51;0.52;97.83
65207;SHT31;58477;48.072;11.970;2023-01-04T05:57:17;0.34;99.02
65207;SHT31;58477;48.072;11.970;2023-01-04T05:59:42;0.35;99.30
65207;SHT31;58477;48.072;11.970;2023-01-04T06:02:17;0.28;99.52
65207;SHT31;58477;48.072;11.970;2023-01-04T06:04:43;0.41;99.48
65207;SHT31;58477;48.072;11.970;2023-01-04T06:07:08;0.49;99.37
65207;SHT31;58477;48.072;11.970;2023-01-04T06:09:33;0.49;99.18
65207;SHT31;58477;48.072;11.970;2023-01-04T06:11:59;0.69;99.60
65207;SHT31;58477;48.072;11.970;2023-01-04T06:14:24;0.82;99.60
65207;SHT31;58477;48.072;11.970;2023-01-04T06:16:50;0.79;99.56
65207;SHT31;58477;48.072;11.970;2023-01-04T06:19:15;0.85;99.23
65207;SHT31;58477;48.072;11.970;2023-01-04T06:21:41;0.68;98.86
65207;SHT31;58477;48.072;11.970;2023-01-04T06:24:06;0.52;98.16
65207;SHT31;58477;48.072;11.970;2023-01-04T06:26:31;0.68;99.02
65207;SHT31;58477;48.072;11.970;2023-01-04T06:28:57;0.65;98.96
65207;SHT31;58477;48.072;11.970;2023-01-04T06:31:22;0.90;99.54
65207;SHT31;58477;48.072;11.970;2023-01-04T06:33:48;0.79;99.04
65207;SHT31;58477;48.072;11.970;2023-01-04T06:36:13;0.88;99.31
65207;SHT31;58477;48.072;11.970;2023-01-04T06:38:38;0.66;98.38
65207;SHT31;58477;48.072;11.970;2023-01-04T06:41:04;0.49;97.84
65207;SHT31;58477;48.072;11.970;2023-01-04T06:43:30;0.44;97.86
65207;SHT31;58477;48.072;11.970;2023-01-04T06:45:55;0.55;98.32
65207;SHT31;58477;48.072;11.970;2023-01-04T06:48:20;0.51;98.62
65207;SHT31;58477;48.072;11.970;2023-01-04T06:50:46;0.34;99.02
65207;SHT31;58477;48.072;11.970;2023-01-04T06:53:11;0.27;98.98
65207;SHT31;58477;48.072;11.970;2023-01-04T06:55:37;0.34;99.00
65207;SHT31;58477;48.072;11.970;2023-01-04T06:58:02;0.57;99.11
65207;SHT31;58477;48.072;11.970;2023-01-04T07:00:28;0.95;99.53
65207;SHT31;58477;48.072;11.970;2023-01-04T07:02:53;1.20;99.70
65207;SHT31;58477;48.072;11.970;2023-01-04T07:05:19;1.36;99.53
65207;SHT31;58477;48.072;11.970;2023-01-04T07:07:44;1.57;99.55
65207;SHT31;58477;48.072;11.970;2023-01-04T07:10:09;1.75;99.31
65207;SHT31;58477;48.072;11.970;2023-01-04T07:12:35;1.85;98.85
65207;SHT31;58477;48.072;11.970;2023-01-04T07:15:02;1.88;98.51
65207;SHT31;58477;48.072;11.970;2023-01-04T07:17:27;1.81;98.10
65207;SHT31;58477;48.072;11.970;2023-01-04T07:19:53;1.68;97.79
65207;SHT31;58477;48.072;11.970;2023-01-04T07:22:18;1.60;97.54
65207;SHT31;58477;48.072;11.970;2023-01-04T07:24:43;1.46;97.52
65207;SHT31;58477;48.072;11.970;2023-01-04T07:27:10;1.46;97.90
65207;SHT31;58477;48.072;11.970;2023-01-04T07:29:35;1.54;98.26
65207;SHT31;58477;48.072;11.970;2023-01-04T07:32:01;1.57;98.06
65207;SHT31;58477;48.072;11.970;2023-01-04T07:34:27;1.54;98.17
65207;SHT31;58477;48.072;11.970;2023-01-04T07:36:53;1.53;98.13
65207;SHT31;58477;48.072;11.970;2023-01-04T07:39:19;1.46;98.09
65207;SHT31;58477;48.072;11.970;2023-01-04T07:41:45;1.65;98.62
65207;SHT31;58477;48.072;11.970;2023-01-04T07:44:13;1.77;98.26
65207;SHT31;58477;48.072;11.970;2023-01-04T07:46:39;2.07;98.30
65207;SHT31;58477;48.072;11.970;2023-01-04T07:49:09;2.94;97.54
65207;SHT31;58477;48.072;11.970;2023-01-04T07:51:35;3.64;93.18
65207;SHT31;58477;48.072;11.970;2023-01-04T07:54:00;3.91;89.19
65207;SHT31;58477;48.072;11.970;2023-01-04T07:56:26;4.49;87.65
65207;SHT31;58477;48.072;11.970;2023-01-04T07:58:51;5.01;86.25
65207;SHT31;58477;48.072;11.970;2023-01-04T08:01:22;5.54;85.71
65207;SHT31;58477;48.072;11.970;2023-01-04T08:03:47;5.69;84.64
65207;SHT31;58477;48.072;11.970;2023-01-04T08:06:14;6.44;82.29
65207;SHT31;58477;48.072;11.970;2023-01-04T08:08:40;6.74;81.18
65207;SHT31;58477;48.072;11.970;2023-01-04T08:11:08;6.83;79.64
65207;SHT31;58477;48.072;11.970;2023-01-04T08:13:35;7.60;79.24
65207;SHT31;58477;48.072;11.970;2023-01-04T08:16:01;8.10;76.58
65207;SHT31;58477;48.072;11.970;2023-01-04T08:18:26;8.51;75.18
65207;SHT31;58477;48.072;11.970;2023-01-04T08:21:06;8.95;73.78
65207;SHT31;58477;48.072;11.970;2023-01-04T08:23:32;9.46;72.96
65207;SHT31;58477;48.072;11.970;2023-01-04T08:26:03;9.32;71.65
65207;SHT31;58477;48.072;11.970;2023-01-04T08:28:30;9.13;73.31
65207;SHT31;58477;48.072;11.970;2023-01-04T08:30:56;10.02;71.72
65207;SHT31;58477;48.072;11.970;2023-01-04T08:33:21;9.73;70.74
65207;SHT31;58477;48.072;11.970;2023-01-04T08:35:47;10.35;69.12
65207;SHT31;58477;48.072;11.970;2023-01-04T08:38:12;9.66;69.86
65207;SHT31;58477;48.072;11.970;2023-01-04T08:40:37;10.11;70.61
65207;SHT31;58477;48.072;11.970;2023-01-04T08:43:03;10.42;70.79
65207;SHT31;58477;48.072;11.970;2023-01-04T08:45:28;10.83;69.14
65207;SHT31;58477;48.072;11.970;2023-01-04T08:47:54;10.71;68.22
65207;SHT31;58477;48.072;11.970;2023-01-04T08:50:19;10.80;68.32
65207;SHT31;58477;48.072;11.970;2023-01-04T08:52:46;10.58;68.99
65207;SHT31;58477;48.072;11.970;2023-01-04T08:55:11;10.46;69.45
65207;SHT31;58477;48.072;11.970;2023-01-04T08:57:37;11.33;67.86
65207;SHT31;58477;48.072;11.970;2023-01-04T09:00:03;11.80;67.08
65207;SHT31;58477;48.072;11.970;2023-01-04T09:02:29;11.61;66.27
65207;SHT31;58477;48.072;11.970;2023-01-04T09:04:55;11.41;64.98
65207;SHT31;58477;48.072;11.970;2023-01-04T09:07:27;11.34;67.26
65207;SHT31;58477;48.072;11.970;2023-01-04T09:09:53;11.73;65.75
65207;SHT31;58477;48.072;11.970;2023-01-04T09:12:18;11.81;65.20
65207;SHT31;58477;48.072;11.970;2023-01-04T09:14:43;11.64;66.14
65207;SHT31;58477;48.072;11.970;2023-01-04T09:17:09;10.75;68.67
65207;SHT31;58477;48.072;11.970;2023-01-04T09:19:34;11.22;67.44
65207;SHT31;58477;48.072;11.970;2023-01-04T09:22:00;11.40;66.00
65207;SHT31;58477;48.072;11.970;2023-01-04T09:24:25;12.21;65.21
65207;SHT31;58477;48.072;11.970;2023-01-04T09:26:51;12.06;66.69
65207;SHT31;58477;48.072;11.970;2023-01-04T09:29:16;11.95;67.47
65207;SHT31;58477;48.072;11.970;2023-01-04T09:31:42;11.03;70.37
65207;SHT31;58477;48.072;11.970;2023-01-04T09:34:08;10.77;71.66
65207;SHT31;58477;48.072;11.970;2023-01-04T09:36:35;9.94;71.55
65207;SHT31;58477;48.072;11.970;2023-01-04T09:39:00;8.64;75.73
65207;SHT31;58477;48.072;11.970;2023-01-04T09:43:54;9.73;73.84
65207;SHT31;58477;48.072;11.970;2023-01-04T09:46:32;9.98;72.04
65207;SHT31;58477;48.072;11.970;2023-01-04T09:49:25;10.31;72.37
65207;SHT31;58477;48.072;11.970;2023-01-04T09:51:59;9.98;73.28
65207;SHT31;58477;48.072;11.970;2023-01-04T09:54:34;10.41;72.99
65207;SHT31;58477;48.072;11.970;2023-01-04T09:57:04;10.71;70.61
65207;SHT31;58477;48.072;11.970;2023-01-04T09:59:33;10.80;70.71
65207;SHT31;58477;48.072;11.970;2023-01-04T10:02:08;11.16;69.57
65207;SHT31;58477;48.072;11.970;2023-01-04T10:04:40;11.31;71.04
65207;SHT31;58477;48.072;11.970;2023-01-04T10:07:13;10.56;72.19
65207;SHT31;58477;48.072;11.970;2023-01-04T10:09:40;10.48;71.85
65207;SHT31;58477;48.072;11.970;2023-01-04T10:12:18;10.66;73.05
65207;SHT31;58477;48.072;11.970;2023-01-04T10:17:27;9.60;75.46
65207;SHT31;58477;48.072;11.970;2023-01-04T10:22:56;8.72;77.69
65207;SHT31;58477;48.072;11.970;2023-01-04T10:25:29;8.41;78.82
65207;SHT31;58477;48.072;11.970;2023-01-04T10:33:46;8.28;79.66
65207;SHT31;58477;48.072;11.970;2023-01-04T10:36:27;8.21;80.83
65207;SHT31;58477;48.072;11.970;2023-01-04T10:38:59;8.03;79.77
65207;SHT31;58477;48.072;11.970;2023-01-04T10:41:28;8.03;81.45
65207;SHT31;58477;48.072;11.970;2023-01-04T10:44:24;8.08;80.62
65207;SHT31;58477;48.072;11.970;2023-01-04T10:47:14;8.05;79.72
65207;SHT31;58477;48.072;11.970;2023-01-04T10:49:46;8.23;80.43
65207;SHT31;58477;48.072;11.970;2023-01-04T10:52:18;8.31;81.47
65207;SHT31;58477;48.072;11.970;2023-01-04T10:54:51;8.25;81.79
65207;SHT31;58477;48.072;11.970;2023-01-04T10:57:29;8.47;81.66
65207;SHT31;58477;48.072;11.970;2023-01-04T11:00:03;8.57;80.41
65207;SHT31;58477;48.072;11.970;2023-01-04T11:02:37;8.28;80.07
65207;SHT31;58477;48.072;11.970;2023-01-04T11:05:17;8.40;79.91
65207;SHT31;58477;48.072;11.970;2023-01-04T11:07:52;8.48;79.36
65207;SHT31;58477;48.072;11.970;2023-01-04T11:10:25;8.28;80.89
65207;SHT31;58477;48.072;11.970;2023-01-04T11:12:51;8.17;82.42
65207;SHT31;58477;48.072;11.970;2023-01-04T11:15:17;8.35;81.43
65207;SHT31;58477;48.072;11.970;2023-01-04T11:17:44;8.35;81.22
65207;SHT31;58477;48.072;11.970;2023-01-04T11:20:10;8.31;81.70
65207;SHT31;58477;48.072;11.970;2023-01-04T11:22:43;8.31;83.91
65207;SHT31;58477;48.072;11.970;2023-01-04T11:25:17;8.08;82.80
65207;SHT31;58477;48.072;11.970;2023-01-04T11:27:47;8.18;82.31
65207;SHT31;58477;48.072;11.970;2023-01-04T11:30:20;8.18;79.12
65207;SHT31;58477;48.072;11.970;2023-01-04T11:32:54;8.18;79.46
65207;SHT31;58477;48.072;11.970;2023-01-04T11:35:41;8.01;77.23
65207;SHT31;58477;48.072;11.970;2023-01-04T11:38:21;7.90;77.48
65207;SHT31;58477;48.072;11.970;2023-01-04T11:43:29;7.93;77.73
65207;SHT31;58477;48.072;11.970;2023-01-04T11:46:07;7.91;78.54
65207;SHT31;58477;48.072;11.970;2023-01-04T11:48:46;8.00;76.55
65207;SHT31;58477;48.072;11.970;2023-01-04T11:51:16;8.03;75.52
65207;SHT31;58477;48.072;11.970;2023-01-04T11:53:42;8.07;76.38
65207;SHT31;58477;48.072;11.970;2023-01-04T11:56:20;8.05;75.95
65207;SHT31;58477;48.072;11.970;2023-01-04T12:01:46;8.20;76.20
65207;SHT31;58477;48.072;11.970;2023-01-04T12:04:15;8.23;76.08
65207;SHT31;58477;48.072;11.970;2023-01-04T12:06:58;8.24;74.44
65207;SHT31;58477;48.072;11.970;2023-01-04T12:09:28;8.21;74.87
65207;SHT31;58477;48.072;11.970;2023-01-04T12:11:56;8.25;74.01
65207;SHT31;58477;48.072;11.970;2023-01-04T12:14:31;8.34;72.72
65207;SHT31;58477;48.072;11.970;2023-01-04T12:19:45;8.49;74.73
65207;SHT31;58477;48.072;11.970;2023-01-04T12:22:31;8.45;73.37
65207;SHT31;58477;48.072;11.970;2023-01-04T12:24:58;8.51;73.49
65207;SHT31;58477;48.072;11.970;2023-01-04T12:27:24;8.58;72.81
65207;SHT31;58477;48.072;11.970;2023-01-04T12:29:55;8.58;71.38
65207;SHT31;58477;48.072;11.970;2023-01-04T12:34:47;8.54;72.09
65207;SHT31;58477;48.072;11.970;2023-01-04T12:45:44;8.55;70.45
65207;SHT31;58477;48.072;11.970;2023-01-04T12:51:24;8.64;72.12
65207;SHT31;58477;48.072;11.970;2023-01-04T12:53:59;8.61;70.85
65207;SHT31;58477;48.072;11.970;2023-01-04T12:59:33;8.58;71.60
65207;SHT31;58477;48.072;11.970;2023-01-04T13:02:34;8.58;71.41
65207;SHT31;58477;48.072;11.970;2023-01-04T13:05:03;8.67;71.11
65207;SHT31;58477;48.072;11.970;2023-01-04T13:07:53;8.67;72.38
65207;SHT31;58477;48.072;11.970;2023-01-04T13:16:24;8.65;70.12
65207;SHT31;58477;48.072;11.970;2023-01-04T13:18:53;8.69;71.27
65207;SHT31;58477;48.072;11.970;2023-01-04T13:21:38;8.76;68.87
65207;SHT31;58477;48.072;11.970;2023-01-04T13:24:31;8.78;68.29
65207;SHT31;58477;48.072;11.970;2023-01-04T13:27:06;8.76;68.39
65207;SHT31;58477;48.072;11.970;2023-01-04T13:29:33;8.82;67.98
65207;SHT31;58477;48.072;11.970;2023-01-04T13:32:04;8.83;67.76
65207;SHT31;58477;48.072;11.970;2023-01-04T13:34:34;8.85;67.56
65207;SHT31;58477;48.072;11.970;2023-01-04T13:39:41;9.00;68.12
65207;SHT31;58477;48.072;11.970;2023-01-04T13:42:13;9.06;67.21
65207;SHT31;58477;48.072;11.970;2023-01-04T13:47:44;9.05;66.94
65207;SHT31;58477;48.072;11.970;2023-01-04T13:50:34;9.03;67.17
65207;SHT31;58477;48.072;11.970;2023-01-04T13:53:01;9.15;66.35
65207;SHT31;58477;48.072;11.970;2023-01-04T13:55:29;9.19;65.78
65207;SHT31;58477;48.072;11.970;2023-01-04T13:57:59;9.22;66.34
65207;SHT31;58477;48.072;11.970;2023-01-04T14:00:30;9.09;66.34
65207;SHT31;58477;48.072;11.970;2023-01-04T14:05:31;9.19;65.78
65207;SHT31;58477;48.072;11.970;2023-01-04T14:07:56;9.15;67.74
65207;SHT31;58477;48.072;11.970;2023-01-04T14:10:22;9.16;66.89
65207;SHT31;58477;48.072;11.970;2023-01-04T14:12:47;9.15;66.94
65207;SHT31;58477;48.072;11.970;2023-01-04T14:15:20;9.10;66.75
65207;SHT31;58477;48.072;11.970;2023-01-04T14:17:53;9.13;65.80
65207;SHT31;58477;48.072;11.970;2023-01-04T14:38:55;9.00;65.89
65207;SHT31;58477;48.072;11.970;2023-01-04T14:41:25;8.98;66.52
65207;SHT31;58477;48.072;11.970;2023-01-04T14:46:29;8.99;66.27
65207;SHT31;58477;48.072;11.970;2023-01-04T14:48:55;8.95;66.69
65207;SHT31;58477;48.072;11.970;2023-01-04T14:51:31;8.96;66.91
65207;SHT31;58477;48.072;11.970;2023-01-04T14:53:57;8.90;66.69
65207;SHT31;58477;48.072;11.970;2023-01-04T14:56:22;8.90;67.19
65207;SHT31;58477;48.072;11.970;2023-01-04T14:58:48;8.88;67.76
65207;SHT31;58477;48.072;11.970;2023-01-04T15:01:13;8.95;67.02
65207;SHT31;58477;48.072;11.970;2023-01-04T15:03:39;8.95;67.50
65207;SHT31;58477;48.072;11.970;2023-01-04T15:06:05;8.93;66.78
65207;SHT31;58477;48.072;11.970;2023-01-04T15:08:31;8.86;67.77
65207;SHT31;58477;48.072;11.970;2023-01-04T15:10:57;8.86;66.74
65207;SHT31;58477;48.072;11.970;2023-01-04T15:13:23;8.90;66.65
65207;SHT31;58477;48.072;11.970;2023-01-04T15:15:48;8.90;66.41
65207;SHT31;58477;48.072;11.970;2023-01-04T15:18:15;8.90;66.20
65207;SHT31;58477;48.072;11.970;2023-01-04T15:20:41;8.89;66.77
65207;SHT31;58477;48.072;11.970;2023-01-04T15:23:07;8.86;66.97
65207;SHT31;58477;48.072;11.970;2023-01-04T15:25:32;8.86;67.23
65207;SHT31;58477;48.072;11.970;2023-01-04T15:27:58;8.88;67.20
65207;SHT31;58477;48.072;11.970;2023-01-04T15:30:23;8.95;66.94
65207;SHT31;58477;48.072;11.970;2023-01-04T15:32:49;8.85;67.46
65207;SHT31;58477;48.072;11.970;2023-01-04T15:35:15;8.82;67.72
65207;SHT31;58477;48.072;11.970;2023-01-04T15:37:44;8.88;67.33
65207;SHT31;58477;48.072;11.970;2023-01-04T15:40:12;8.86;67.08
65207;SHT31;58477;48.072;11.970;2023-01-04T15:42:38;8.89;67.71
65207;SHT31;58477;48.072;11.970;2023-01-04T15:45:22;9.08;67.17
65207;SHT31;58477;48.072;11.970;2023-01-04T15:47:51;9.16;66.26
65207;SHT31;58477;48.072;11.970;2023-01-04T15:50:18;9.26;66.54
65207;SHT31;58477;48.072;11.970;2023-01-04T15:52:43;9.23;67.33
65207;SHT31;58477;48.072;11.970;2023-01-04T15:55:09;9.26;66.58
65207;SHT31;58477;48.072;11.970;2023-01-04T15:57:34;9.34;66.92
65207;SHT31;58477;48.072;11.970;2023-01-04T16:00:01;9.36;67.33
65207;SHT31;58477;48.072;11.970;2023-01-04T16:02:26;9.37;67.41
65207;SHT31;58477;48.072;11.970;2023-01-04T16:04:52;9.40;67.03
65207;SHT31;58477;48.072;11.970;2023-01-04T16:07:17;9.48;66.89
65207;SHT31;58477;48.072;11.970;2023-01-04T16:09:43;9.61;66.69
65207;SHT31;58477;48.072;11.970;2023-01-04T16:12:08;9.71;66.13
65207;SHT31;58477;48.072;11.970;2023-01-04T16:14:52;9.61;66.76
65207;SHT31;58477;48.072;11.970;2023-01-04T16:17:18;9.60;66.85
65207;SHT31;58477;48.072;11.970;2023-01-04T16:19:44;9.43;67.43
65207;SHT31;58477;48.072;11.970;2023-01-04T16:22:09;9.32;68.06
65207;SHT31;58477;48.072;11.970;2023-01-04T16:24:35;9.33;67.95
65207;SHT31;58477;48.072;11.970;2023-01-04T16:27:00;9.51;67.32
65207;SHT31;58477;48.072;11.970;2023-01-04T16:29:25;9.43;68.11
65207;SHT31;58477;48.072;11.970;2023-01-04T16:31:51;9.24;68.70
65207;SHT31;58477;48.072;11.970;2023-01-04T16:34:16;9.23;68.89
65207;SHT31;58477;48.072;11.970;2023-01-04T16:36:41;9.29;68.51
65207;SHT31;58477;48.072;11.970;2023-01-04T16:39:07;9.34;68.66
65207;SHT31;58477;48.072;11.970;2023-01-04T16:41:33;9.29;68.64
65207;SHT31;58477;48.072;11.970;2023-01-04T16:43:59;9.32;69.00
65207;SHT31;58477;48.072;11.970;2023-01-04T16:46:43;9.29;69.11
65207;SHT31;58477;48.072;11.970;2023-01-04T16:49:11;9.13;69.64
65207;SHT31;58477;48.072;11.970;2023-01-04T16:51:39;9.33;69.38
65207;SHT31;58477;48.072;11.970;2023-01-04T16:54:06;9.26;69.92
65207;SHT31;58477;48.072;11.970;2023-01-04T16:56:32;9.22;70.52
65207;SHT31;58477;48.072;11.970;2023-01-04T16:58:58;9.32;70.69
65207;SHT31;58477;48.072;11.970;2023-01-04T17:01:30;9.20;70.82
65207;SHT31;58477;48.072;11.970;2023-01-04T17:04:00;9.06;71.93
65207;SHT31;58477;48.072;11.970;2023-01-04T17:06:30;9.13;72.46
65207;SHT31;58477;48.072;11.970;2023-01-04T17:08:58;9.10;72.77
65207;SHT31;58477;48.072;11.970;2023-01-04T17:11:27;9.16;73.50
65207;SHT31;58477;48.072;11.970;2023-01-04T17:13:53;9.20;74.00
65207;SHT31;58477;48.072;11.970;2023-01-04T17:16:23;9.18;74.18
65207;SHT31;58477;48.072;11.970;2023-01-04T17:18:50;9.20;74.12
65207;SHT31;58477;48.072;11.970;2023-01-04T17:21:18;9.34;74.27
65207;SHT31;58477;48.072;11.970;2023-01-04T17:23:49;9.23;74.73
65207;SHT31;58477;48.072;11.970;2023-01-04T17:26:37;9.19;75.00